Time;durP1;ratioP1;P1;durP2;ratioP2;P2;SDS_P1;SDS_P2;PMS_P1;PMS_P2;Temp;Humidity;BMP_temperature;BMP_pressure;BME280_temperature;BME280_humidity;BME280_pressure;Samples;Min_cycle;Max_cycle;Signal;HPM_P1;HPM_P2
2023/06/28 00:00:21;;;;;;;6.38;1.50;;;16.20;99.90;;;;;;5030641;28;20149;-73
2023/06/28 00:02:46;;;;;;;4.97;1.27;;;16.20;99.90;;;;;;5012005;28;20034;-73
2023/06/28 00:05:12;;;;;;;1.95;0.60;;;16.20;99.90;;;;;;5015005;28;20110;-73
2023/06/28 00:07:39;;;;;;;2.90;0.80;;;16.20;99.90;;;;;;5030249;28;20704;-72
2023/06/28 00:10:05;;;;;;;2.05;0.40;;;16.20;99.90;;;;;;5030451;28;20033;-72
2023/06/28 00:12:32;;;;;;;2.85;1.08;;;16.20;99.90;;;;;;5029706;28;20390;-71
2023/06/28 00:14:59;;;;;;;1.85;0.60;;;16.20;99.90;;;;;;5030213;28;20045;-73
2023/06/28 00:17:28;;;;;;;2.33;0.70;;;16.20;99.90;;;;;;5012071;28;20064;-74
2023/06/28 00:19:59;;;;;;;2.80;0.80;;;16.30;99.90;;;;;;5029787;28;20668;-74
2023/06/28 00:22:29;;;;;;;;;;;16.20;99.90;;;;;;5030106;28;20557;-72
2023/06/28 00:25:03;;;;;;;1.58;0.43;;;16.30;99.90;;;;;;5012310;28;20063;-73
2023/06/28 00:27:30;;;;;;;1.90;0.47;;;16.30;99.90;;;;;;5011771;28;20064;-74
2023/06/28 00:29:56;;;;;;;3.65;0.90;;;16.30;99.90;;;;;;5029937;28;20034;-72
2023/06/28 00:32:25;;;;;;;2.78;0.52;;;16.30;99.90;;;;;;5029031;28;20073;-72
2023/06/28 00:34:51;;;;;;;1.05;0.40;;;16.30;99.90;;;;;;5029448;28;20128;-73
2023/06/28 00:37:17;;;;;;;1.80;0.55;;;16.30;99.90;;;;;;5029852;28;20112;-73
2023/06/28 00:39:43;;;;;;;2.10;0.28;;;16.30;99.90;;;;;;5029707;28;20033;-72
2023/06/28 00:42:09;;;;;;;0.95;0.30;;;16.30;99.90;;;;;;5029758;28;20033;-73
2023/06/28 00:44:34;;;;;;;5.05;0.50;;;16.30;99.90;;;;;;5012162;28;20037;-74
2023/06/28 00:47:02;;;;;;;6.03;0.70;;;16.30;99.90;;;;;;5029115;28;20030;-73
2023/06/28 00:49:31;;;;;;;1.17;0.40;;;16.30;99.90;;;;;;5010968;28;20558;-74
2023/06/28 00:51:57;;;;;;;1.38;0.40;;;16.30;99.90;;;;;;5009017;28;20037;-73
2023/06/28 00:54:23;;;;;;;5.15;0.38;;;16.30;99.90;;;;;;5011464;28;20057;-73
2023/06/28 00:56:51;;;;;;;2.45;0.65;;;16.30;99.90;;;;;;5029373;28;20030;-73
2023/06/28 00:59:17;;;;;;;3.55;0.38;;;16.30;99.90;;;;;;5012303;28;20040;-73
2023/06/28 01:01:43;;;;;;;1.50;0.43;;;16.30;99.90;;;;;;5029215;28;20041;-73
2023/06/28 01:04:09;;;;;;;2.47;0.40;;;16.30;99.90;;;;;;5030794;28;20045;-73
2023/06/28 01:06:37;;;;;;;3.55;0.73;;;16.30;99.90;;;;;;5010953;28;20382;-73
2023/06/28 01:09:07;;;;;;;3.35;0.70;;;16.30;99.90;;;;;;5007377;28;20498;-73
2023/06/28 01:11:34;;;;;;;3.13;0.60;;;16.30;99.90;;;;;;5006976;28;20038;-74
2023/06/28 01:14:00;;;;;;;3.83;0.55;;;16.30;99.90;;;;;;5010448;28;20041;-74
2023/06/28 01:16:26;;;;;;;3.83;0.80;;;16.30;99.90;;;;;;5019836;28;20121;-74
2023/06/28 01:18:52;;;;;;;2.03;0.60;;;16.20;99.90;;;;;;5028542;28;20112;-74
2023/06/28 01:21:20;;;;;;;3.67;0.47;;;16.30;99.90;;;;;;5029248;28;20037;-72
2023/06/28 01:23:45;;;;;;;5.28;0.65;;;16.30;99.90;;;;;;5024877;28;20092;-72
2023/06/28 01:26:12;;;;;;;9.45;0.50;;;16.20;99.90;;;;;;5028981;28;20053;-72
2023/06/28 01:28:38;;;;;;;4.75;0.57;;;16.20;99.90;;;;;;5028235;28;20045;-72
2023/06/28 01:31:06;;;;;;;3.35;0.40;;;16.20;99.90;;;;;;5010652;28;20041;-72
2023/06/28 01:33:31;;;;;;;2.28;0.63;;;16.10;99.90;;;;;;5010324;28;20435;-73
2023/06/28 01:35:57;;;;;;;0.43;0.25;;;16.10;99.90;;;;;;5011055;28;20036;-73
2023/06/28 01:38:24;;;;;;;1.67;0.52;;;16.10;99.90;;;;;;5010634;28;20025;-72
2023/06/28 01:40:51;;;;;;;3.10;0.60;;;16.10;99.90;;;;;;5010946;28;20041;-72
2023/06/28 01:43:17;;;;;;;1.75;0.50;;;16.10;99.90;;;;;;5010792;28;20029;-72
2023/06/28 01:45:43;;;;;;;3.88;0.80;;;16.10;99.90;;;;;;5028247;28;20120;-72
2023/06/28 01:48:09;;;;;;;2.58;0.50;;;16.00;99.90;;;;;;5010292;28;20437;-74
2023/06/28 01:50:35;;;;;;;2.70;1.20;;;15.90;99.90;;;;;;5027949;28;20658;-73
2023/06/28 01:53:03;;;;;;;2.60;0.88;;;15.90;99.90;;;;;;5010370;28;20389;-73
2023/06/28 01:55:30;;;;;;;2.78;0.70;;;15.80;99.90;;;;;;5009875;28;20607;-73
2023/06/28 01:57:56;;;;;;;2.70;1.02;;;15.70;99.90;;;;;;5009806;28;20116;-73
2023/06/28 02:00:22;;;;;;;3.40;0.60;;;15.70;99.90;;;;;;5010025;28;20026;-73
2023/06/28 02:02:50;;;;;;;3.08;0.47;;;15.60;99.90;;;;;;5027937;28;20041;-73
2023/06/28 02:05:16;;;;;;;5.70;0.70;;;15.60;99.90;;;;;;5011770;28;20063;-74
2023/06/28 02:07:41;;;;;;;3.30;0.75;;;15.50;99.90;;;;;;5010365;28;20454;-73
2023/06/28 02:10:10;;;;;;;7.28;0.90;;;15.40;99.90;;;;;;5010469;28;20030;-71
2023/06/28 02:12:35;;;;;;;5.53;0.68;;;15.40;99.90;;;;;;5028148;28;20512;-71
2023/06/28 02:15:02;;;;;;;1.75;0.82;;;15.30;99.90;;;;;;5010286;28;20030;-72
2023/06/28 02:17:30;;;;;;;1.65;0.88;;;15.30;99.90;;;;;;5027738;28;20033;-70
2023/06/28 02:19:56;;;;;;;3.38;0.85;;;15.20;99.90;;;;;;5028323;28;20035;-72
2023/06/28 02:22:22;;;;;;;2.20;0.50;;;15.20;99.90;;;;;;5009940;28;20041;-71
2023/06/28 02:24:47;;;;;;;5.47;1.20;;;15.10;99.90;;;;;;5010487;28;20038;-71
2023/06/28 02:27:14;;;;;;;2.25;0.80;;;15.10;99.90;;;;;;5012317;28;20565;-71
2023/06/28 02:29:40;;;;;;;5.78;1.52;;;15.00;99.90;;;;;;5030331;28;20038;-71
2023/06/28 02:32:05;;;;;;;3.42;0.80;;;15.00;99.90;;;;;;5010757;28;20207;-72
2023/06/28 02:34:31;;;;;;;5.88;0.85;;;15.10;99.90;;;;;;5010232;28;20049;-71
2023/06/28 02:36:57;;;;;;;1.80;0.90;;;15.00;99.90;;;;;;5010567;28;20100;-71
2023/06/28 02:39:23;;;;;;;4.55;0.80;;;15.00;99.90;;;;;;5009677;28;20025;-72
2023/06/28 02:41:49;;;;;;;4.22;0.85;;;15.00;99.90;;;;;;5010275;28;20029;-71
2023/06/28 02:44:15;;;;;;;7.45;0.68;;;14.90;99.90;;;;;;5028419;28;20034;-71
2023/06/28 02:46:40;;;;;;;3.13;1.02;;;14.90;99.90;;;;;;5010228;28;20029;-71
2023/06/28 02:49:06;;;;;;;3.45;0.80;;;14.90;99.90;;;;;;5028002;28;20045;-72
2023/06/28 02:51:32;;;;;;;2.53;1.10;;;14.80;99.90;;;;;;5009702;28;20044;-72
2023/06/28 02:53:58;;;;;;;3.60;1.38;;;14.80;99.90;;;;;;5027805;28;20037;-71
2023/06/28 02:56:23;;;;;;;4.68;1.35;;;14.80;99.90;;;;;;5010122;28;20076;-71
2023/06/28 02:58:49;;;;;;;3.83;0.75;;;14.80;99.90;;;;;;5027711;28;20069;-72
2023/06/28 03:01:15;;;;;;;5.18;1.42;;;14.80;99.90;;;;;;5010115;28;20040;-72
2023/06/28 03:03:41;;;;;;;2.38;1.30;;;14.70;99.90;;;;;;5011746;28;20482;-71
2023/06/28 03:06:06;;;;;;;3.33;1.25;;;14.70;99.90;;;;;;5033865;28;20492;-72
2023/06/28 03:08:32;;;;;;;7.95;1.38;;;14.70;99.90;;;;;;5009816;28;20048;-71
2023/06/28 03:10:58;;;;;;;4.53;1.30;;;14.70;99.90;;;;;;5027837;28;20041;-71
2023/06/28 03:13:24;;;;;;;2.90;1.30;;;14.70;99.90;;;;;;5009593;28;20069;-71
2023/06/28 03:15:49;;;;;;;2.58;1.30;;;14.80;99.90;;;;;;5016146;28;20025;-72
2023/06/28 03:18:15;;;;;;;4.63;1.42;;;14.70;99.90;;;;;;5048115;28;20032;-71
2023/06/28 03:20:41;;;;;;;6.28;2.05;;;14.80;99.90;;;;;;5047885;28;20017;-70
2023/06/28 03:23:07;;;;;;;9.85;2.15;;;14.80;99.90;;;;;;5022661;28;20030;-70
2023/06/28 03:25:32;;;;;;;6.35;1.77;;;14.80;99.90;;;;;;5010620;28;20034;-71
2023/06/28 03:27:58;;;;;;;4.32;2.13;;;14.80;99.90;;;;;;5027765;28;20025;-71
2023/06/28 03:30:23;;;;;;;9.20;1.95;;;14.80;99.90;;;;;;5009712;28;20108;-71
2023/06/28 03:32:49;;;;;;;7.57;2.00;;;14.90;99.90;;;;;;5027048;28;20017;-71
2023/06/28 03:35:15;;;;;;;5.18;2.13;;;14.90;99.90;;;;;;5009721;28;20044;-72
2023/06/28 03:37:49;;;;;;;5.18;1.70;;;14.90;99.90;;;;;;5009640;28;20574;-71
2023/06/28 03:40:15;;;;;;;5.90;1.88;;;14.90;99.90;;;;;;5009632;28;20026;-71
2023/06/28 03:42:40;;;;;;;7.18;2.75;;;14.90;99.90;;;;;;5027222;28;20040;-71
2023/06/28 03:45:06;;;;;;;6.93;2.10;;;14.90;99.90;;;;;;5009758;28;20119;-71
2023/06/28 03:47:32;;;;;;;10.77;2.40;;;14.90;99.90;;;;;;5009634;28;20087;-71
2023/06/28 03:49:58;;;;;;;8.65;2.38;;;15.00;99.90;;;;;;5009560;28;20034;-72
2023/06/28 03:52:23;;;;;;;5.35;2.05;;;15.00;99.90;;;;;;5008767;28;20041;-72
2023/06/28 03:54:49;;;;;;;5.00;1.70;;;15.00;99.90;;;;;;5026836;28;20045;-72
2023/06/28 03:57:14;;;;;;;6.85;2.63;;;15.00;99.90;;;;;;5009690;28;20045;-71
2023/06/28 03:59:40;;;;;;;14.27;2.78;;;15.00;99.90;;;;;;5026494;28;20025;-71
2023/06/28 04:02:05;;;;;;;7.80;2.95;;;15.10;99.90;;;;;;5009802;28;20123;-72
2023/06/28 04:04:33;;;;;;;9.68;2.42;;;15.00;99.90;;;;;;5031597;28;20064;-71
2023/06/28 04:07:00;;;;;;;6.97;3.00;;;15.10;99.90;;;;;;5027076;28;20037;-71
2023/06/28 04:09:26;;;;;;;10.57;2.78;;;15.10;99.90;;;;;;5026308;28;20029;-71
2023/06/28 04:11:51;;;;;;;9.82;3.22;;;15.20;99.90;;;;;;5026453;28;20037;-71
2023/06/28 04:14:17;;;;;;;9.98;2.58;;;15.20;99.90;;;;;;5010827;28;20049;-70
2023/06/28 04:16:42;;;;;;;6.18;2.20;;;15.20;99.90;;;;;;5023857;28;20399;-70
2023/06/28 04:19:08;;;;;;;11.10;2.95;;;15.30;99.90;;;;;;5030588;28;20116;-71
2023/06/28 04:21:34;;;;;;;7.97;3.13;;;15.30;99.90;;;;;;5011919;28;20037;-71
2023/06/28 04:24:00;;;;;;;10.93;2.97;;;15.30;99.90;;;;;;5012290;28;20061;-71
2023/06/28 04:26:25;;;;;;;8.45;2.88;;;15.40;99.90;;;;;;5011815;28;20034;-73
2023/06/28 04:28:51;;;;;;;12.25;3.03;;;15.40;99.90;;;;;;5030108;28;20041;-72
2023/06/28 04:31:16;;;;;;;6.55;2.67;;;15.40;99.90;;;;;;5012445;28;20083;-72
2023/06/28 04:33:42;;;;;;;10.00;3.08;;;15.40;99.90;;;;;;5029686;28;20072;-72
2023/06/28 04:36:09;;;;;;;8.90;2.40;;;15.40;99.90;;;;;;5029684;28;20085;-72
2023/06/28 04:38:35;;;;;;;9.15;3.08;;;15.50;99.90;;;;;;5029730;28;20490;-71
2023/06/28 04:41:00;;;;;;;7.30;3.28;;;15.50;99.90;;;;;;5011647;28;20080;-71
2023/06/28 04:43:26;;;;;;;10.50;3.22;;;15.50;99.90;;;;;;5011743;28;20088;-72
2023/06/28 04:45:55;;;;;;;6.10;2.75;;;15.50;99.90;;;;;;5011591;28;20025;-72
2023/06/28 04:48:21;;;;;;;8.65;2.78;;;15.50;99.90;;;;;;5012057;28;20143;-72
2023/06/28 04:50:47;;;;;;;5.88;2.53;;;15.50;99.90;;;;;;5011445;28;20124;-76
2023/06/28 04:53:13;;;;;;;7.75;3.10;;;15.60;99.90;;;;;;5030173;28;20034;-71
2023/06/28 04:55:39;;;;;;;6.65;2.92;;;15.50;99.90;;;;;;5009666;28;20107;-71
2023/06/28 04:58:06;;;;;;;10.35;2.60;;;15.60;99.90;;;;;;5010235;28;20636;-71
2023/06/28 05:00:32;;;;;;;8.43;2.83;;;15.60;99.90;;;;;;5009771;28;20482;-73
2023/06/28 05:03:02;;;;;;;10.30;2.83;;;15.60;99.90;;;;;;5009726;28;20044;-71
2023/06/28 05:05:28;;;;;;;13.75;3.38;;;15.60;99.90;;;;;;5027094;28;20038;-72
2023/06/28 05:07:54;;;;;;;8.02;3.70;;;15.60;99.90;;;;;;5010430;28;20494;-73
2023/06/28 05:10:20;;;;;;;7.68;2.92;;;15.60;99.90;;;;;;5011679;28;20710;-70
2023/06/28 05:12:48;;;;;;;11.15;3.72;;;15.60;99.90;;;;;;5010759;28;20482;-71
2023/06/28 05:15:13;;;;;;;13.80;4.28;;;15.60;99.90;;;;;;5010147;28;20095;-72
2023/06/28 05:17:39;;;;;;;6.97;3.35;;;15.60;99.90;;;;;;5010236;28;20041;-74
2023/06/28 05:20:05;;;;;;;13.88;3.38;;;15.60;99.90;;;;;;5027479;28;20080;-73
2023/06/28 05:22:31;;;;;;;8.05;3.00;;;15.70;99.90;;;;;;5009505;28;20033;-72
2023/06/28 05:24:57;;;;;;;9.23;3.35;;;15.70;99.90;;;;;;5010081;28;20052;-70
2023/06/28 05:27:22;;;;;;;13.23;4.05;;;15.70;99.90;;;;;;5009404;28;20026;-73
2023/06/28 05:29:48;;;;;;;11.18;3.33;;;15.70;99.90;;;;;;5026388;28;20029;-72
2023/06/28 05:32:13;;;;;;;13.32;4.00;;;15.70;99.90;;;;;;5027693;28;20044;-71
2023/06/28 05:34:39;;;;;;;10.60;3.72;;;15.80;99.90;;;;;;5027064;28;20037;-71
2023/06/28 05:37:05;;;;;;;11.70;3.88;;;15.80;99.90;;;;;;5009792;28;20124;-70
2023/06/28 05:39:31;;;;;;;11.10;4.03;;;15.80;99.90;;;;;;5027343;28;20148;-71
2023/06/28 05:41:57;;;;;;;11.40;3.97;;;15.80;99.90;;;;;;5009241;28;20472;-73
2023/06/28 05:44:23;;;;;;;11.88;3.17;;;15.80;99.90;;;;;;5009686;28;20026;-71
2023/06/28 05:46:49;;;;;;;12.48;3.42;;;15.80;99.90;;;;;;5026981;28;20030;-72
2023/06/28 05:49:14;;;;;;;8.63;3.95;;;15.90;99.90;;;;;;5010078;28;20080;-71
2023/06/28 05:51:40;;;;;;;14.77;3.85;;;15.90;99.90;;;;;;5026631;28;20037;-73
2023/06/28 05:54:05;;;;;;;10.50;3.75;;;15.90;99.90;;;;;;5026609;28;20072;-72
2023/06/28 05:56:31;;;;;;;18.92;3.70;;;15.90;99.90;;;;;;5008660;28;20581;-73
2023/06/28 05:58:57;;;;;;;10.68;3.30;;;15.90;99.90;;;;;;5008976;28;20040;-71
2023/06/28 06:01:23;;;;;;;15.15;4.40;;;15.90;99.90;;;;;;5009402;28;20026;-72
2023/06/28 06:03:49;;;;;;;12.82;3.33;;;16.00;99.90;;;;;;5027783;28;20152;-73
2023/06/28 06:06:15;;;;;;;11.00;3.72;;;16.00;99.90;;;;;;5009609;28;20052;-72
2023/06/28 06:08:40;;;;;;;10.63;3.67;;;16.00;99.90;;;;;;5025997;28;20041;-72
2023/06/28 06:11:06;;;;;;;13.48;4.10;;;16.00;99.90;;;;;;5007473;28;20490;-74
2023/06/28 06:13:32;;;;;;;8.88;3.70;;;16.00;99.90;;;;;;5025178;28;20124;-72
2023/06/28 06:15:57;;;;;;;10.55;3.78;;;16.00;99.90;;;;;;5009937;28;20048;-73
2023/06/28 06:18:23;;;;;;;13.70;3.50;;;16.00;99.90;;;;;;5008289;28;20125;-75
2023/06/28 06:20:50;;;;;;;7.05;2.88;;;16.10;99.90;;;;;;5008171;28;20033;-73
2023/06/28 06:23:17;;;;;;;10.00;3.95;;;16.10;99.90;;;;;;5024439;28;20502;-73
2023/06/28 06:25:42;;;;;;;12.30;3.75;;;16.10;99.90;;;;;;5007170;28;20104;-72
2023/06/28 06:28:08;;;;;;;10.65;3.70;;;16.10;99.90;;;;;;5007342;28;20030;-72
2023/06/28 06:30:33;;;;;;;10.50;4.60;;;16.10;99.90;;;;;;5005990;28;20112;-71
2023/06/28 06:32:59;;;;;;;9.77;3.60;;;16.10;99.90;;;;;;5007815;28;20039;-74
2023/06/28 06:35:26;;;;;;;10.45;3.40;;;16.20;99.90;;;;;;5008350;28;20041;-73
2023/06/28 06:37:52;;;;;;;12.25;3.70;;;16.10;99.90;;;;;;5008406;28;20029;-73
2023/06/28 06:40:18;;;;;;;12.00;3.70;;;16.10;99.90;;;;;;5026429;28;20612;-74
2023/06/28 06:42:45;;;;;;;17.50;4.15;;;16.20;99.90;;;;;;5007581;28;20037;-73
2023/06/28 06:45:16;;;;;;;14.02;4.93;;;16.20;99.90;;;;;;5007703;28;20034;-72
2023/06/28 06:47:44;;;;;;;16.67;4.47;;;16.20;99.90;;;;;;5008466;28;20497;-71
2023/06/28 06:50:11;;;;;;;8.50;3.50;;;16.20;99.90;;;;;;5008232;28;20371;-72
2023/06/28 06:52:40;;;;;;;19.67;4.82;;;16.20;99.90;;;;;;5010168;28;20037;-72
2023/06/28 06:55:06;;;;;;;13.05;4.53;;;16.20;99.90;;;;;;5029846;28;20033;-73
2023/06/28 06:57:31;;;;;;;13.80;4.35;;;16.20;99.90;;;;;;5010994;28;20083;-72
2023/06/28 06:59:57;;;;;;;11.55;4.40;;;16.30;99.90;;;;;;5010214;28;20051;-70
2023/06/28 07:02:23;;;;;;;13.57;4.15;;;16.30;99.90;;;;;;5027210;28;20147;-72
2023/06/28 07:04:49;;;;;;;12.75;4.32;;;16.30;99.90;;;;;;5026897;28;20528;-71
2023/06/28 07:07:15;;;;;;;13.95;3.63;;;16.30;99.90;;;;;;5026647;28;20132;-75
2023/06/28 07:09:40;;;;;;;11.00;4.30;;;16.40;99.90;;;;;;5026067;28;20498;-72
2023/06/28 07:12:06;;;;;;;13.82;3.70;;;16.40;99.90;;;;;;5008114;28;20030;-71
2023/06/28 07:14:32;;;;;;;11.65;3.83;;;16.50;99.90;;;;;;5007810;28;20116;-73
2023/06/28 07:16:57;;;;;;;8.27;3.35;;;16.50;99.90;;;;;;5025677;28;20120;-72
2023/06/28 07:19:23;;;;;;;8.60;3.30;;;16.50;99.90;;;;;;5007996;28;20056;-72
2023/06/28 07:21:49;;;;;;;6.82;3.05;;;16.60;99.90;;;;;;5007433;28;20048;-71
2023/06/28 07:24:14;;;;;;;10.25;3.50;;;16.60;99.90;;;;;;5024935;28;20025;-71
2023/06/28 07:26:40;;;;;;;17.15;4.05;;;16.60;99.90;;;;;;5007541;28;20114;-72
2023/06/28 07:29:05;;;;;;;11.60;3.75;;;16.70;99.90;;;;;;5007694;28;20081;-73
2023/06/28 07:31:31;;;;;;;9.68;3.97;;;16.70;99.90;;;;;;5025118;28;20037;-72
2023/06/28 07:33:57;;;;;;;10.02;3.58;;;16.80;99.90;;;;;;5007549;28;20410;-71
2023/06/28 07:36:23;;;;;;;6.38;3.00;;;16.80;99.90;;;;;;5007574;28;20120;-73
2023/06/28 07:38:50;;;;;;;10.48;3.28;;;16.80;99.90;;;;;;5007471;28;20121;-71
2023/06/28 07:41:16;;;;;;;9.82;2.85;;;16.90;99.90;;;;;;5007974;28;20083;-73
2023/06/28 07:43:43;;;;;;;12.20;3.63;;;17.00;99.90;;;;;;5025070;28;20157;-71
2023/06/28 07:46:08;;;;;;;9.38;3.67;;;16.90;99.90;;;;;;5024995;28;20606;-71
2023/06/28 07:48:34;;;;;;;9.18;2.88;;;17.00;99.90;;;;;;5007502;28;20120;-73
2023/06/28 07:51:00;;;;;;;9.68;3.05;;;17.00;99.90;;;;;;5007201;28;20033;-71
2023/06/28 07:53:25;;;;;;;8.13;2.92;;;17.00;99.90;;;;;;5008693;28;20034;-72
2023/06/28 07:55:51;;;;;;;10.10;3.00;;;17.10;99.90;;;;;;5010981;28;20067;-71
2023/06/28 07:58:16;;;;;;;11.93;2.83;;;17.10;99.90;;;;;;5011506;28;20148;-72
2023/06/28 08:00:42;;;;;;;19.50;3.38;;;17.10;99.90;;;;;;5011160;28;20037;-71
2023/06/28 08:03:08;;;;;;;9.13;2.83;;;17.10;99.90;;;;;;5029033;28;20143;-71
2023/06/28 08:05:33;;;;;;;7.07;2.97;;;17.10;99.90;;;;;;5012381;28;20029;-71
2023/06/28 08:07:59;;;;;;;7.40;2.67;;;17.00;99.90;;;;;;5010840;28;20029;-74
2023/06/28 08:10:25;;;;;;;9.60;2.88;;;17.10;99.90;;;;;;5029111;28;20049;-71
2023/06/28 08:12:51;;;;;;;8.43;3.08;;;17.20;99.90;;;;;;5010650;28;20051;-71
2023/06/28 08:15:18;;;;;;;12.93;3.28;;;17.30;99.90;;;;;;5030616;28;20033;-72
2023/06/28 08:17:44;;;;;;;9.00;3.10;;;17.30;99.90;;;;;;5011051;28;20040;-73
2023/06/28 08:20:09;;;;;;;8.50;3.08;;;17.20;99.90;;;;;;5010696;28;20037;-74
2023/06/28 08:22:35;;;;;;;6.45;2.97;;;17.20;99.90;;;;;;5028165;28;20394;-73
2023/06/28 08:25:01;;;;;;;9.73;3.00;;;17.20;99.90;;;;;;5028507;28;20420;-70
2023/06/28 08:27:26;;;;;;;6.00;2.88;;;17.20;99.90;;;;;;5008981;28;20040;-70
2023/06/28 08:29:52;;;;;;;7.35;2.78;;;17.30;99.90;;;;;;5010482;28;20033;-73
2023/06/28 08:32:17;;;;;;;7.20;2.20;;;17.40;99.90;;;;;;5010810;28;20111;-72
2023/06/28 08:34:43;;;;;;;15.75;2.70;;;17.40;99.90;;;;;;5028215;28;20049;-71
2023/06/28 08:37:10;;;;;;;9.95;2.45;;;17.50;99.90;;;;;;5011215;28;20083;-73
2023/06/28 08:39:36;;;;;;;9.30;2.90;;;17.50;99.90;;;;;;5010146;28;20541;-72
2023/06/28 08:42:02;;;;;;;5.93;2.88;;;17.50;99.90;;;;;;5028056;28;20037;-72
2023/06/28 08:44:31;;;;;;;14.75;3.30;;;17.50;99.90;;;;;;5029986;28;20116;-71
2023/06/28 08:46:57;;;;;;;11.57;2.72;;;17.50;99.90;;;;;;5016132;28;20049;-73
2023/06/28 08:49:23;;;;;;;10.10;3.13;;;17.50;99.90;;;;;;5013402;28;20069;-73
2023/06/28 08:51:49;;;;;;;11.13;2.65;;;17.50;99.90;;;;;;5028291;28;20109;-74
2023/06/28 08:54:15;;;;;;;15.35;4.45;;;17.60;99.90;;;;;;5010670;28;20041;-71
2023/06/28 08:56:41;;;;;;;6.65;2.85;;;17.80;99.90;;;;;;5028056;28;20117;-71
2023/06/28 08:59:08;;;;;;;15.18;3.97;;;17.90;99.90;;;;;;5027958;28;20049;-72
2023/06/28 09:01:35;;;;;;;10.70;3.20;;;18.10;99.90;;;;;;5009863;28;20049;-72
2023/06/28 09:04:03;;;;;;;13.20;3.47;;;18.20;99.90;;;;;;5009043;28;20025;-73
2023/06/28 09:06:29;;;;;;;12.30;3.38;;;18.30;99.90;;;;;;5009804;28;20036;-72
2023/06/28 09:08:55;;;;;;;5.93;2.33;;;18.40;99.90;;;;;;5008818;28;20030;-74
2023/06/28 09:11:20;;;;;;;7.45;3.33;;;18.30;99.90;;;;;;5007618;28;20059;-74
2023/06/28 09:13:47;;;;;;;9.15;3.08;;;18.30;99.90;;;;;;5026803;28;20233;-73
2023/06/28 09:16:13;;;;;;;11.60;3.38;;;18.40;99.90;;;;;;5008669;28;20153;-72
2023/06/28 09:18:38;;;;;;;11.20;3.22;;;18.40;99.90;;;;;;5008387;28;20033;-72
2023/06/28 09:21:04;;;;;;;11.98;3.20;;;18.30;99.90;;;;;;5008821;28;20072;-73
2023/06/28 09:23:33;;;;;;;10.45;3.80;;;18.30;99.90;;;;;;5007617;28;20034;-74
2023/06/28 09:25:58;;;;;;;10.23;4.03;;;18.40;99.90;;;;;;5025670;28;20516;-74
2023/06/28 09:28:34;;;;;;;10.10;3.40;;;18.40;99.90;;;;;;5008237;28;20032;-73
2023/06/28 09:31:01;;;;;;;7.95;3.08;;;18.60;99.90;;;;;;5007920;28;20033;-71
2023/06/28 09:33:26;;;;;;;7.18;3.45;;;18.70;99.90;;;;;;5026044;28;20513;-74
2023/06/28 09:35:54;;;;;;;6.80;3.05;;;18.80;99.90;;;;;;5007390;28;20060;-72
2023/06/28 09:38:21;;;;;;;12.07;3.38;;;19.00;99.90;;;;;;5027019;28;20598;-72
2023/06/28 09:40:56;;;;;;;21.30;5.25;;;19.20;99.90;;;;;;5029136;28;20037;-72
2023/06/28 09:43:22;;;;;;;8.23;3.47;;;19.50;99.90;;;;;;5010085;28;20057;-74
2023/06/28 09:45:48;;;;;;;15.80;4.07;;;19.60;99.90;;;;;;5009650;28;20029;-73
2023/06/28 09:48:14;;;;;;;9.98;3.50;;;19.80;99.90;;;;;;5026687;28;20033;-72
2023/06/28 09:50:44;;;;;;;11.52;4.13;;;19.80;99.90;;;;;;5008813;28;20140;-72
2023/06/28 09:53:17;;;;;;;10.77;4.15;;;20.00;99.90;;;;;;5009170;28;20040;-73
2023/06/28 09:55:44;;;;;;;7.85;3.67;;;20.10;99.90;;;;;;5003040;28;20052;-73
2023/06/28 09:58:11;;;;;;;10.15;4.15;;;20.30;99.90;;;;;;5010185;28;20037;-72
2023/06/28 10:00:38;;;;;;;12.18;4.00;;;20.40;99.90;;;;;;5008959;28;20064;-72
2023/06/28 10:03:09;;;;;;;15.95;3.90;;;20.50;99.90;;;;;;5008354;28;20034;-73
2023/06/28 10:05:36;;;;;;;10.65;4.32;;;20.50;99.90;;;;;;5007258;28;20166;-73
2023/06/28 10:08:18;;;;;;;6.70;3.03;;;20.60;99.90;;;;;;5008665;28;20036;-72
2023/06/28 10:10:46;;;;;;;14.65;4.40;;;20.60;99.90;;;;;;5024243;28;20033;-73
2023/06/28 10:13:26;;;;;;;16.30;4.97;;;20.60;99.90;;;;;;5011304;28;20085;-71
2023/06/28 10:16:12;;;;;;;16.35;5.38;;;20.50;99.90;;;;;;5007987;28;20041;-72
2023/06/28 10:18:38;;;;;;;10.82;4.18;;;20.60;99.90;;;;;;5031126;28;20043;-71
2023/06/28 10:21:07;;;;;;;10.45;4.25;;;20.50;99.90;;;;;;5031261;28;20041;-73
2023/06/28 10:23:35;;;;;;;11.68;3.72;;;20.50;99.90;;;;;;5029070;28;20800;-72
2023/06/28 10:26:05;;;;;;;11.63;4.63;;;20.50;99.90;;;;;;5027440;28;20454;-72
2023/06/28 10:28:34;;;;;;;13.40;4.30;;;20.50;99.90;;;;;;5027205;28;20026;-73
2023/06/28 10:31:01;;;;;;;12.35;5.30;;;20.50;99.90;;;;;;5009143;28;20093;-73
2023/06/28 10:33:31;;;;;;;14.10;5.13;;;20.50;99.90;;;;;;5012254;28;20025;-73
2023/06/28 10:36:00;;;;;;;10.57;4.38;;;20.70;99.90;;;;;;5012064;28;20060;-75
2023/06/28 10:38:27;;;;;;;17.00;5.50;;;20.90;99.90;;;;;;5026828;28;20041;-73
2023/06/28 10:40:54;;;;;;;10.93;4.30;;;21.30;99.90;;;;;;5026344;28;20029;-76
2023/06/28 10:43:24;;;;;;;8.95;4.03;;;21.70;99.90;;;;;;5006005;28;20041;-72
2023/06/28 10:45:52;;;;;;;11.77;4.75;;;21.90;99.90;;;;;;5007558;28;20109;-75
2023/06/28 10:48:20;;;;;;;12.73;5.85;;;22.10;99.90;;;;;;5007581;28;20033;-74
2023/06/28 10:50:47;;;;;;;11.50;4.30;;;22.40;99.90;;;;;;5025968;28;20041;-72
2023/06/28 10:53:19;;;;;;;15.20;4.82;;;22.50;99.90;;;;;;5033314;28;20537;-74
2023/06/28 10:56:03;;;;;;;11.45;4.32;;;22.70;99.90;;;;;;5025661;28;20041;-72
2023/06/28 10:58:39;;;;;;;14.38;4.95;;;22.80;99.90;;;;;;5008121;28;20033;-72
2023/06/28 11:01:07;;;;;;;13.52;4.80;;;22.90;99.90;;;;;;5022042;28;20044;-75
2023/06/28 11:03:44;;;;;;;13.52;4.35;;;22.90;99.90;;;;;;5007999;28;20034;-73
2023/06/28 11:06:11;;;;;;;10.07;4.15;;;22.80;99.90;;;;;;5001504;28;20037;-73
2023/06/28 11:08:44;;;;;;;11.55;4.43;;;22.80;99.90;;;;;;5008268;28;20033;-74
2023/06/28 11:11:21;;;;;;;16.73;5.15;;;22.80;99.90;;;;;;5025546;28;20048;-73
2023/06/28 11:13:49;;;;;;;11.07;5.10;;;23.00;99.90;;;;;;5026191;28;20628;-73
2023/06/28 11:16:23;;;;;;;11.38;4.45;;;23.20;99.90;;;;;;5026054;28;20034;-74
2023/06/28 11:18:50;;;;;;;11.15;4.88;;;23.40;99.90;;;;;;5008085;28;20505;-73
2023/06/28 11:21:24;;;;;;;10.38;4.20;;;23.40;99.90;;;;;;5008030;28;20052;-72
2023/06/28 11:23:53;;;;;;;18.90;5.93;;;23.50;99.90;;;;;;5007702;28;20036;-73
2023/06/28 11:26:32;;;;;;;11.25;5.30;;;23.50;99.90;;;;;;5009457;28;20057;-74
2023/06/28 11:28:57;;;;;;;14.95;4.68;;;23.50;99.90;;;;;;5011416;28;20041;-73
2023/06/28 11:31:25;;;;;;;9.82;5.30;;;23.40;99.90;;;;;;5012139;28;20490;-72
2023/06/28 11:33:54;;;;;;;11.45;5.05;;;23.40;99.90;;;;;;5011881;28;20045;-74
2023/06/28 11:36:24;;;;;;;15.57;6.50;;;23.40;99.90;;;;;;5030356;28;20037;-71
2023/06/28 11:38:50;;;;;;;13.23;4.78;;;23.40;99.90;;;;;;5012009;28;20029;-74
2023/06/28 11:41:16;;;;;;;12.90;5.22;;;23.60;99.90;;;;;;5029540;28;20034;-73
2023/06/28 11:43:44;;;;;;;9.38;5.78;;;23.60;99.90;;;;;;5011812;28;20045;-71
2023/06/28 11:46:14;;;;;;;10.95;4.70;;;23.50;99.90;;;;;;5012570;28;20552;-72
2023/06/28 11:48:40;;;;;;;13.32;5.60;;;23.20;99.90;;;;;;5012976;28;20640;-73
2023/06/28 11:51:06;;;;;;;11.93;5.32;;;23.00;99.90;;;;;;5012984;28;20026;-73
2023/06/28 11:53:31;;;;;;;10.70;5.07;;;22.70;99.90;;;;;;5013155;28;20056;-74
2023/06/28 11:55:58;;;;;;;9.40;5.07;;;22.40;99.90;;;;;;5030356;28;20451;-75
2023/06/28 11:58:35;;;;;;;14.60;5.72;;;22.20;99.90;;;;;;5012648;28;20037;-73
2023/06/28 12:01:02;;;;;;;14.13;4.97;;;22.00;99.90;;;;;;5026577;28;20103;-73
2023/06/28 12:03:38;;;;;;;15.07;5.05;;;21.80;99.90;;;;;;5026757;28;20045;-74
2023/06/28 12:06:12;;;;;;;14.23;5.10;;;21.70;99.90;;;;;;5027246;28;20140;-72
2023/06/28 12:08:40;;;;;;;9.00;4.68;;;21.70;99.90;;;;;;5030000;28;20042;-72
2023/06/28 12:11:16;;;;;;;12.55;5.20;;;21.60;99.90;;;;;;5029888;28;20049;-74
2023/06/28 12:13:44;;;;;;;13.05;5.25;;;21.60;99.90;;;;;;5012034;28;20041;-73
2023/06/28 12:16:18;;;;;;;15.90;5.47;;;21.60;99.90;;;;;;5033345;28;20034;-73
2023/06/28 12:18:56;;;;;;;15.98;6.35;;;21.60;99.90;;;;;;5011887;28;20033;-73
2023/06/28 12:21:23;;;;;;;10.80;5.45;;;21.60;99.90;;;;;;5012824;28;20399;-73
2023/06/28 12:23:50;;;;;;;15.38;5.20;;;21.60;99.90;;;;;;5013002;28;20049;-73
2023/06/28 12:26:16;;;;;;;15.00;6.57;;;21.60;99.90;;;;;;5030167;28;20143;-74
2023/06/28 12:28:49;;;;;;;12.00;5.50;;;21.60;99.90;;;;;;5011921;28;20497;-73
2023/06/28 12:31:15;;;;;;;13.77;6.80;;;21.60;99.90;;;;;;5029849;28;20062;-73
2023/06/28 12:33:41;;;;;;;13.68;5.18;;;21.60;99.90;;;;;;5029517;28;20073;-73
2023/06/28 12:36:13;;;;;;;12.85;5.57;;;21.70;99.90;;;;;;5011845;28;20060;-73
2023/06/28 12:38:49;;;;;;;18.88;6.03;;;21.80;99.90;;;;;;5011113;28;20080;-72
2023/06/28 12:41:15;;;;;;;13.27;5.68;;;21.90;99.90;;;;;;5029159;28;20037;-74